sensor_id;sensor_type;location;lat;lon;timestamp;temperature;humidity
51950;DHT22;37974;53.218;6.640;2024-03-23T00:53:25;5.40;99.90
51950;DHT22;37974;53.218;6.640;2024-03-23T00:55:51;5.80;99.90
51950;DHT22;37974;53.218;6.640;2024-03-23T00:58:17;5.30;99.90
51950;DHT22;37974;53.218;6.640;2024-03-23T01:00:42;5.30;99.90
51950;DHT22;37974;53.218;6.640;2024-03-23T01:03:08;5.20;99.90
51950;DHT22;37974;53.218;6.640;2024-03-23T01:05:34;5.20;99.90
51950;DHT22;37974;53.218;6.640;2024-03-23T01:07:59;5.10;99.90
51950;DHT22;37974;53.218;6.640;2024-03-23T01:10:25;5.10;99.90
51950;DHT22;37974;53.218;6.640;2024-03-23T01:12:51;5.10;99.90
51950;DHT22;37974;53.218;6.640;2024-03-23T01:15:16;5.00;99.90
51950;DHT22;37974;53.218;6.640;2024-03-23T01:17:42;5.50;99.90
51950;DHT22;37974;53.218;6.640;2024-03-23T01:20:08;5.10;99.90
51950;DHT22;37974;53.218;6.640;2024-03-23T01:22:33;4.90;99.90
51950;DHT22;37974;53.218;6.640;2024-03-23T01:24:59;4.90;99.90
51950;DHT22;37974;53.218;6.640;2024-03-23T01:27:25;5.00;99.90
51950;DHT22;37974;53.218;6.640;2024-03-23T01:29:50;4.80;99.90
51950;DHT22;37974;53.218;6.640;2024-03-23T01:32:18;4.70;99.90
51950;DHT22;37974;53.218;6.640;2024-03-23T01:34:44;4.70;99.90
51950;DHT22;37974;53.218;6.640;2024-03-23T01:37:10;4.60;99.90
51950;DHT22;37974;53.218;6.640;2024-03-23T01:39:35;4.50;99.90
51950;DHT22;37974;53.218;6.640;2024-03-23T01:42:01;4.50;99.90
51950;DHT22;37974;53.218;6.640;2024-03-23T01:44:27;4.50;99.90
51950;DHT22;37974;53.218;6.640;2024-03-23T01:46:53;4.50;99.90
51950;DHT22;37974;53.218;6.640;2024-03-23T01:49:19;4.50;99.90
51950;DHT22;37974;53.218;6.640;2024-03-23T01:51:46;5.40;99.90
51950;DHT22;37974;53.218;6.640;2024-03-23T01:54:11;4.50;99.90
51950;DHT22;37974;53.218;6.640;2024-03-23T01:56:37;5.00;99.90
51950;DHT22;37974;53.218;6.640;2024-03-23T01:59:04;4.50;99.90
51950;DHT22;37974;53.218;6.640;2024-03-23T02:01:31;5.00;99.90
51950;DHT22;37974;53.218;6.640;2024-03-23T02:03:56;4.60;99.90
51950;DHT22;37974;53.218;6.640;2024-03-23T02:06:23;4.60;99.90
51950;DHT22;37974;53.218;6.640;2024-03-23T02:08:49;4.40;99.90
51950;DHT22;37974;53.218;6.640;2024-03-23T02:11:15;4.40;99.90
51950;DHT22;37974;53.218;6.640;2024-03-23T02:13:41;4.40;99.90
51950;DHT22;37974;53.218;6.640;2024-03-23T02:16:06;4.40;99.90
51950;DHT22;37974;53.218;6.640;2024-03-23T02:18:33;4.60;99.90
51950;DHT22;37974;53.218;6.640;2024-03-23T02:20:59;4.40;99.90
51950;DHT22;37974;53.218;6.640;2024-03-23T02:23:24;4.30;99.90
51950;DHT22;37974;53.218;6.640;2024-03-23T02:25:50;4.30;99.90
51950;DHT22;37974;53.218;6.640;2024-03-23T02:28:16;4.20;99.90
51950;DHT22;37974;53.218;6.640;2024-03-23T02:30:42;4.10;99.90
51950;DHT22;37974;53.218;6.640;2024-03-23T02:33:08;4.10;99.90
51950;DHT22;37974;53.218;6.640;2024-03-23T02:35:34;4.90;99.90
51950;DHT22;37974;53.218;6.640;2024-03-23T02:38:00;4.60;99.90
51950;DHT22;37974;53.218;6.640;2024-03-23T02:40:27;4.10;99.90
51950;DHT22;37974;53.218;6.640;2024-03-23T02:42:53;4.10;99.90
51950;DHT22;37974;53.218;6.640;2024-03-23T02:45:18;4.50;99.90
51950;DHT22;37974;53.218;6.640;2024-03-23T02:47:44;4.40;99.90
51950;DHT22;37974;53.218;6.640;2024-03-23T02:50:10;4.60;99.90
51950;DHT22;37974;53.218;6.640;2024-03-23T02:52:36;4.30;99.90
51950;DHT22;37974;53.218;6.640;2024-03-23T02:55:03;4.60;99.90
51950;DHT22;37974;53.218;6.640;2024-03-23T02:57:28;4.10;99.90
51950;DHT22;37974;53.218;6.640;2024-03-23T02:59:54;4.20;99.90
51950;DHT22;37974;53.218;6.640;2024-03-23T03:02:20;4.50;99.90
51950;DHT22;37974;53.218;6.640;2024-03-23T03:04:46;4.40;99.90
51950;DHT22;37974;53.218;6.640;2024-03-23T03:07:13;5.00;99.90
51950;DHT22;37974;53.218;6.640;2024-03-23T03:09:39;5.00;99.90
51950;DHT22;37974;53.218;6.640;2024-03-23T03:12:05;4.40;99.90
51950;DHT22;37974;53.218;6.640;2024-03-23T03:14:31;4.40;99.90
51950;DHT22;37974;53.218;6.640;2024-03-23T03:16:57;4.80;99.90
51950;DHT22;37974;53.218;6.640;2024-03-23T03:19:22;4.30;99.90
51950;DHT22;37974;53.218;6.640;2024-03-23T03:21:48;4.30;99.90
51950;DHT22;37974;53.218;6.640;2024-03-23T03:24:15;4.50;99.90
51950;DHT22;37974;53.218;6.640;2024-03-23T03:26:41;4.20;99.90
51950;DHT22;37974;53.218;6.640;2024-03-23T03:29:06;4.30;99.90
51950;DHT22;37974;53.218;6.640;2024-03-23T03:31:32;4.00;99.90
51950;DHT22;37974;53.218;6.640;2024-03-23T03:33:57;4.50;99.90
51950;DHT22;37974;53.218;6.640;2024-03-23T03:36:23;4.00;99.90
51950;DHT22;37974;53.218;6.640;2024-03-23T03:38:49;4.30;99.90
51950;DHT22;37974;53.218;6.640;2024-03-23T03:41:15;4.20;99.90
51950;DHT22;37974;53.218;6.640;2024-03-23T03:43:40;3.90;99.90
51950;DHT22;37974;53.218;6.640;2024-03-23T03:46:06;3.80;99.90
51950;DHT22;37974;53.218;6.640;2024-03-23T03:48:33;4.00;99.90
51950;DHT22;37974;53.218;6.640;2024-03-23T03:50:59;3.70;99.90
51950;DHT22;37974;53.218;6.640;2024-03-23T03:53:25;3.70;99.90
51950;DHT22;37974;53.218;6.640;2024-03-23T03:55:52;4.00;99.90
51950;DHT22;37974;53.218;6.640;2024-03-23T03:58:17;3.60;99.90
51950;DHT22;37974;53.218;6.640;2024-03-23T04:00:43;3.60;99.90
51950;DHT22;37974;53.218;6.640;2024-03-23T04:03:09;4.00;99.90
51950;DHT22;37974;53.218;6.640;2024-03-23T04:05:34;4.10;99.90
51950;DHT22;37974;53.218;6.640;2024-03-23T04:08:00;4.20;99.90
51950;DHT22;37974;53.218;6.640;2024-03-23T04:10:26;3.60;99.90
51950;DHT22;37974;53.218;6.640;2024-03-23T04:12:52;3.80;99.90
51950;DHT22;37974;53.218;6.640;2024-03-23T04:15:19;3.80;99.90
51950;DHT22;37974;53.218;6.640;2024-03-23T04:17:44;4.00;99.90
51950;DHT22;37974;53.218;6.640;2024-03-23T04:20:11;4.30;99.90
51950;DHT22;37974;53.218;6.640;2024-03-23T04:22:39;3.70;99.90
51950;DHT22;37974;53.218;6.640;2024-03-23T04:25:05;3.60;99.90
51950;DHT22;37974;53.218;6.640;2024-03-23T04:27:33;3.60;99.90
51950;DHT22;37974;53.218;6.640;2024-03-23T04:29:59;3.90;99.90
51950;DHT22;37974;53.218;6.640;2024-03-23T04:32:26;4.10;99.90
51950;DHT22;37974;53.218;6.640;2024-03-23T04:34:53;4.10;99.90
51950;DHT22;37974;53.218;6.640;2024-03-23T04:37:18;3.60;99.90
51950;DHT22;37974;53.218;6.640;2024-03-23T04:39:45;3.60;99.90
51950;DHT22;37974;53.218;6.640;2024-03-23T04:42:11;3.60;99.90
51950;DHT22;37974;53.218;6.640;2024-03-23T04:44:37;3.60;99.90
51950;DHT22;37974;53.218;6.640;2024-03-23T04:47:03;3.60;99.90
51950;DHT22;37974;53.218;6.640;2024-03-23T04:49:29;3.60;99.90
51950;DHT22;37974;53.218;6.640;2024-03-23T04:51:54;3.60;99.90
51950;DHT22;37974;53.218;6.640;2024-03-23T04:54:20;3.80;99.90
51950;DHT22;37974;53.218;6.640;2024-03-23T04:56:46;3.50;99.90
51950;DHT22;37974;53.218;6.640;2024-03-23T04:59:11;3.50;99.90
51950;DHT22;37974;53.218;6.640;2024-03-23T05:01:37;3.50;99.90
51950;DHT22;37974;53.218;6.640;2024-03-23T05:04:05;4.30;99.90
51950;DHT22;37974;53.218;6.640;2024-03-23T05:06:31;3.50;99.90
51950;DHT22;37974;53.218;6.640;2024-03-23T05:08:57;3.50;99.90
51950;DHT22;37974;53.218;6.640;2024-03-23T05:11:22;3.40;99.90
51950;DHT22;37974;53.218;6.640;2024-03-23T05:13:48;3.40;99.90
51950;DHT22;37974;53.218;6.640;2024-03-23T05:16:14;3.70;99.90
51950;DHT22;37974;53.218;6.640;2024-03-23T05:18:39;4.10;99.90
51950;DHT22;37974;53.218;6.640;2024-03-23T05:21:05;3.70;99.90
51950;DHT22;37974;53.218;6.640;2024-03-23T05:23:31;4.10;99.90
51950;DHT22;37974;53.218;6.640;2024-03-23T05:25:56;3.80;99.90
51950;DHT22;37974;53.218;6.640;2024-03-23T05:28:22;3.60;99.90
51950;DHT22;37974;53.218;6.640;2024-03-23T05:30:53;3.40;99.90
51950;DHT22;37974;53.218;6.640;2024-03-23T05:33:19;3.40;99.90
51950;DHT22;37974;53.218;6.640;2024-03-23T05:35:46;3.80;99.90
51950;DHT22;37974;53.218;6.640;2024-03-23T05:38:13;3.50;99.90
51950;DHT22;37974;53.218;6.640;2024-03-23T05:40:40;3.90;99.90
51950;DHT22;37974;53.218;6.640;2024-03-23T05:43:07;3.70;99.90
51950;DHT22;37974;53.218;6.640;2024-03-23T05:45:33;3.80;99.90
51950;DHT22;37974;53.218;6.640;2024-03-23T05:47:59;3.70;99.90
51950;DHT22;37974;53.218;6.640;2024-03-23T05:50:25;3.80;99.90
51950;DHT22;37974;53.218;6.640;2024-03-23T05:52:51;3.80;99.90
51950;DHT22;37974;53.218;6.640;2024-03-23T05:55:17;3.80;99.90
51950;DHT22;37974;53.218;6.640;2024-03-23T05:57:43;3.80;99.90
51950;DHT22;37974;53.218;6.640;2024-03-23T06:00:09;4.00;99.90
51950;DHT22;37974;53.218;6.640;2024-03-23T06:02:42;3.90;99.90
51950;DHT22;37974;53.218;6.640;2024-03-23T06:05:11;4.90;99.90
51950;DHT22;37974;53.218;6.640;2024-03-23T06:07:37;4.00;99.90
51950;DHT22;37974;53.218;6.640;2024-03-23T06:10:04;4.20;99.90
51950;DHT22;37974;53.218;6.640;2024-03-23T06:12:31;4.40;99.90
51950;DHT22;37974;53.218;6.640;2024-03-23T06:14:57;5.00;99.90
51950;DHT22;37974;53.218;6.640;2024-03-23T06:17:23;4.90;99.90
51950;DHT22;37974;53.218;6.640;2024-03-23T06:19:48;5.00;99.90
51950;DHT22;37974;53.218;6.640;2024-03-23T06:22:15;5.10;99.90
51950;DHT22;37974;53.218;6.640;2024-03-23T06:24:40;5.20;99.90
51950;DHT22;37974;53.218;6.640;2024-03-23T06:27:06;5.20;99.90
51950;DHT22;37974;53.218;6.640;2024-03-23T06:29:32;5.30;99.90
51950;DHT22;37974;53.218;6.640;2024-03-23T06:31:58;5.10;99.90
51950;DHT22;37974;53.218;6.640;2024-03-23T06:34:24;5.00;99.90
51950;DHT22;37974;53.218;6.640;2024-03-23T06:36:50;4.90;99.90
51950;DHT22;37974;53.218;6.640;2024-03-23T06:39:16;4.80;99.90
51950;DHT22;37974;53.218;6.640;2024-03-23T06:41:51;4.80;99.90
51950;DHT22;37974;53.218;6.640;2024-03-23T06:44:17;4.80;99.90
51950;DHT22;37974;53.218;6.640;2024-03-23T06:46:43;4.90;99.90
51950;DHT22;37974;53.218;6.640;2024-03-23T06:49:08;5.00;99.90
51950;DHT22;37974;53.218;6.640;2024-03-23T06:51:34;5.50;99.90
51950;DHT22;37974;53.218;6.640;2024-03-23T06:54:00;5.00;99.90
51950;DHT22;37974;53.218;6.640;2024-03-23T06:56:25;5.00;99.90
51950;DHT22;37974;53.218;6.640;2024-03-23T06:58:51;5.10;99.90
51950;DHT22;37974;53.218;6.640;2024-03-23T07:01:17;5.20;99.90
51950;DHT22;37974;53.218;6.640;2024-03-23T07:03:42;5.30;99.90
51950;DHT22;37974;53.218;6.640;2024-03-23T07:06:09;5.80;99.90
51950;DHT22;37974;53.218;6.640;2024-03-23T07:08:35;5.70;99.90
51950;DHT22;37974;53.218;6.640;2024-03-23T07:11:01;5.70;99.90
51950;DHT22;37974;53.218;6.640;2024-03-23T07:13:28;5.70;99.90
51950;DHT22;37974;53.218;6.640;2024-03-23T07:15:54;5.60;99.90
51950;DHT22;37974;53.218;6.640;2024-03-23T07:18:21;5.60;99.90
51950;DHT22;37974;53.218;6.640;2024-03-23T07:20:55;5.60;99.90
51950;DHT22;37974;53.218;6.640;2024-03-23T07:23:23;5.70;99.90
51950;DHT22;37974;53.218;6.640;2024-03-23T07:25:58;5.90;99.90
51950;DHT22;37974;53.218;6.640;2024-03-23T07:28:24;6.00;99.90
51950;DHT22;37974;53.218;6.640;2024-03-23T07:31:08;6.10;99.90
51950;DHT22;37974;53.218;6.640;2024-03-23T07:33:36;6.00;99.90
51950;DHT22;37974;53.218;6.640;2024-03-23T07:36:02;5.90;99.90
51950;DHT22;37974;53.218;6.640;2024-03-23T07:38:29;5.80;99.90
51950;DHT22;37974;53.218;6.640;2024-03-23T07:41:08;5.60;99.90
51950;DHT22;37974;53.218;6.640;2024-03-23T07:43:35;5.60;99.90
51950;DHT22;37974;53.218;6.640;2024-03-23T07:46:01;6.00;99.90
51950;DHT22;37974;53.218;6.640;2024-03-23T07:48:28;5.70;99.90
51950;DHT22;37974;53.218;6.640;2024-03-23T07:51:00;6.00;99.90
51950;DHT22;37974;53.218;6.640;2024-03-23T07:53:27;5.90;99.90
51950;DHT22;37974;53.218;6.640;2024-03-23T07:55:55;6.00;99.90
51950;DHT22;37974;53.218;6.640;2024-03-23T07:58:21;6.10;99.90
51950;DHT22;37974;53.218;6.640;2024-03-23T08:00:47;6.20;99.90
51950;DHT22;37974;53.218;6.640;2024-03-23T08:03:13;6.30;99.90
51950;DHT22;37974;53.218;6.640;2024-03-23T08:05:38;6.50;99.90
51950;DHT22;37974;53.218;6.640;2024-03-23T08:08:04;6.70;99.90
51950;DHT22;37974;53.218;6.640;2024-03-23T08:10:30;6.90;99.90
51950;DHT22;37974;53.218;6.640;2024-03-23T08:12:56;7.20;99.90
51950;DHT22;37974;53.218;6.640;2024-03-23T08:15:21;7.40;99.90
51950;DHT22;37974;53.218;6.640;2024-03-23T08:17:47;7.50;99.90
51950;DHT22;37974;53.218;6.640;2024-03-23T08:20:13;7.30;99.90
51950;DHT22;37974;53.218;6.640;2024-03-23T08:22:39;7.00;99.90
51950;DHT22;37974;53.218;6.640;2024-03-23T08:25:05;6.80;99.90
51950;DHT22;37974;53.218;6.640;2024-03-23T08:27:31;6.60;99.90
51950;DHT22;37974;53.218;6.640;2024-03-23T08:29:56;7.00;99.90
51950;DHT22;37974;53.218;6.640;2024-03-23T08:32:22;6.50;99.90
51950;DHT22;37974;53.218;6.640;2024-03-23T08:34:48;6.50;99.90
51950;DHT22;37974;53.218;6.640;2024-03-23T08:37:14;6.60;99.90
51950;DHT22;37974;53.218;6.640;2024-03-23T08:39:41;6.70;99.90
51950;DHT22;37974;53.218;6.640;2024-03-23T08:42:06;6.70;99.90
51950;DHT22;37974;53.218;6.640;2024-03-23T08:44:33;6.80;99.90
51950;DHT22;37974;53.218;6.640;2024-03-23T08:46:59;7.00;99.90
51950;DHT22;37974;53.218;6.640;2024-03-23T08:49:25;7.10;99.90
51950;DHT22;37974;53.218;6.640;2024-03-23T08:51:50;7.30;99.90
51950;DHT22;37974;53.218;6.640;2024-03-23T08:54:16;7.40;99.90
51950;DHT22;37974;53.218;6.640;2024-03-23T08:56:42;7.40;99.90
51950;DHT22;37974;53.218;6.640;2024-03-23T08:59:08;7.30;99.90
51950;DHT22;37974;53.218;6.640;2024-03-23T09:01:34;7.40;99.90
51950;DHT22;37974;53.218;6.640;2024-03-23T09:03:59;7.50;99.90
51950;DHT22;37974;53.218;6.640;2024-03-23T09:06:25;7.70;99.90
51950;DHT22;37974;53.218;6.640;2024-03-23T09:08:51;7.90;99.90
51950;DHT22;37974;53.218;6.640;2024-03-23T09:11:16;8.10;99.90
51950;DHT22;37974;53.218;6.640;2024-03-23T09:13:42;8.30;99.90
51950;DHT22;37974;53.218;6.640;2024-03-23T09:16:08;8.60;99.90
51950;DHT22;37974;53.218;6.640;2024-03-23T09:18:36;8.80;99.90
51950;DHT22;37974;53.218;6.640;2024-03-23T09:21:03;9.10;99.90
51950;DHT22;37974;53.218;6.640;2024-03-23T09:23:29;9.30;99.90
51950;DHT22;37974;53.218;6.640;2024-03-23T09:25:55;9.50;99.90
51950;DHT22;37974;53.218;6.640;2024-03-23T09:28:22;9.70;99.90
51950;DHT22;37974;53.218;6.640;2024-03-23T09:30:48;9.80;99.90
51950;DHT22;37974;53.218;6.640;2024-03-23T09:33:13;9.90;99.90
51950;DHT22;37974;53.218;6.640;2024-03-23T09:35:40;10.00;99.90
51950;DHT22;37974;53.218;6.640;2024-03-23T09:38:06;10.00;99.90
51950;DHT22;37974;53.218;6.640;2024-03-23T09:40:40;9.80;99.90
51950;DHT22;37974;53.218;6.640;2024-03-23T09:43:08;9.10;99.90
51950;DHT22;37974;53.218;6.640;2024-03-23T09:45:39;8.30;99.90
51950;DHT22;37974;53.218;6.640;2024-03-23T09:48:06;7.50;99.90
51950;DHT22;37974;53.218;6.640;2024-03-23T09:50:33;6.90;99.90
51950;DHT22;37974;53.218;6.640;2024-03-23T09:52:58;6.50;99.90
51950;DHT22;37974;53.218;6.640;2024-03-23T09:55:24;6.30;99.90
51950;DHT22;37974;53.218;6.640;2024-03-23T09:57:50;6.20;99.90
51950;DHT22;37974;53.218;6.640;2024-03-23T10:00:16;6.10;99.90
51950;DHT22;37974;53.218;6.640;2024-03-23T10:02:42;6.20;99.90
51950;DHT22;37974;53.218;6.640;2024-03-23T10:05:23;6.20;99.90
51950;DHT22;37974;53.218;6.640;2024-03-23T10:07:50;6.30;99.90
51950;DHT22;37974;53.218;6.640;2024-03-23T10:10:16;6.50;99.90
51950;DHT22;37974;53.218;6.640;2024-03-23T10:12:48;6.70;99.90
51950;DHT22;37974;53.218;6.640;2024-03-23T10:15:23;6.90;99.90
51950;DHT22;37974;53.218;6.640;2024-03-23T10:17:49;7.10;99.90
51950;DHT22;37974;53.218;6.640;2024-03-23T10:20:23;7.40;99.90
51950;DHT22;37974;53.218;6.640;2024-03-23T10:22:50;7.60;99.90
51950;DHT22;37974;53.218;6.640;2024-03-23T10:25:17;7.80;99.90
51950;DHT22;37974;53.218;6.640;2024-03-23T10:27:43;7.90;99.90
51950;DHT22;37974;53.218;6.640;2024-03-23T10:30:12;8.10;99.90
51950;DHT22;37974;53.218;6.640;2024-03-23T10:32:38;8.20;99.90
51950;DHT22;37974;53.218;6.640;2024-03-23T10:37:42;8.50;99.90
51950;DHT22;37974;53.218;6.640;2024-03-23T10:40:10;8.80;99.90
51950;DHT22;37974;53.218;6.640;2024-03-23T10:42:37;8.90;99.90
51950;DHT22;37974;53.218;6.640;2024-03-23T10:45:05;8.90;99.90
51950;DHT22;37974;53.218;6.640;2024-03-23T10:47:32;8.70;99.90
51950;DHT22;37974;53.218;6.640;2024-03-23T10:49:58;8.50;99.90
51950;DHT22;37974;53.218;6.640;2024-03-23T10:52:24;8.40;99.90
51950;DHT22;37974;53.218;6.640;2024-03-23T10:54:51;8.50;99.90
51950;DHT22;37974;53.218;6.640;2024-03-23T10:57:21;8.70;99.90
51950;DHT22;37974;53.218;6.640;2024-03-23T10:59:48;9.00;99.90
51950;DHT22;37974;53.218;6.640;2024-03-23T11:02:20;9.20;99.90
51950;DHT22;37974;53.218;6.640;2024-03-23T11:04:46;9.40;99.90
51950;DHT22;37974;53.218;6.640;2024-03-23T11:09:50;9.40;99.90
51950;DHT22;37974;53.218;6.640;2024-03-23T11:12:25;8.90;99.90
51950;DHT22;37974;53.218;6.640;2024-03-23T11:14:55;8.50;99.90
51950;DHT22;37974;53.218;6.640;2024-03-23T11:17:23;8.10;99.90
51950;DHT22;37974;53.218;6.640;2024-03-23T11:19:58;7.80;99.90
51950;DHT22;37974;53.218;6.640;2024-03-23T11:25:15;7.40;99.90
51950;DHT22;37974;53.218;6.640;2024-03-23T11:27:41;7.30;99.90
51950;DHT22;37974;53.218;6.640;2024-03-23T11:30:18;7.20;99.90
51950;DHT22;37974;53.218;6.640;2024-03-23T11:32:45;7.10;99.90
51950;DHT22;37974;53.218;6.640;2024-03-23T11:38:09;7.50;99.90
51950;DHT22;37974;53.218;6.640;2024-03-23T11:40:38;8.10;99.90
51950;DHT22;37974;53.218;6.640;2024-03-23T11:43:05;8.50;99.90
51950;DHT22;37974;53.218;6.640;2024-03-23T11:45:36;8.90;99.90
51950;DHT22;37974;53.218;6.640;2024-03-23T11:48:13;9.30;99.90
51950;DHT22;37974;53.218;6.640;2024-03-23T11:50:41;9.50;99.90
51950;DHT22;37974;53.218;6.640;2024-03-23T11:53:08;9.70;99.90
51950;DHT22;37974;53.218;6.640;2024-03-23T11:55:52;9.70;99.90
51950;DHT22;37974;53.218;6.640;2024-03-23T11:58:20;9.70;99.90
51950;DHT22;37974;53.218;6.640;2024-03-23T12:00:54;9.60;99.90
51950;DHT22;37974;53.218;6.640;2024-03-23T12:03:20;9.40;99.90
51950;DHT22;37974;53.218;6.640;2024-03-23T12:05:49;9.20;99.90
51950;DHT22;37974;53.218;6.640;2024-03-23T12:08:17;9.00;99.90
51950;DHT22;37974;53.218;6.640;2024-03-23T12:10:46;8.80;99.90
51950;DHT22;37974;53.218;6.640;2024-03-23T12:13:15;8.70;99.90
51950;DHT22;37974;53.218;6.640;2024-03-23T12:15:43;8.30;99.90
51950;DHT22;37974;53.218;6.640;2024-03-23T12:18:09;8.00;99.90
51950;DHT22;37974;53.218;6.640;2024-03-23T12:20:36;8.10;99.90
51950;DHT22;37974;53.218;6.640;2024-03-23T12:23:08;8.20;99.90
51950;DHT22;37974;53.218;6.640;2024-03-23T12:25:35;8.10;99.90
51950;DHT22;37974;53.218;6.640;2024-03-23T12:28:01;7.90;99.90
51950;DHT22;37974;53.218;6.640;2024-03-23T12:30:27;7.50;99.90
51950;DHT22;37974;53.218;6.640;2024-03-23T12:32:53;7.30;99.90
51950;DHT22;37974;53.218;6.640;2024-03-23T12:35:19;7.10;99.90
51950;DHT22;37974;53.218;6.640;2024-03-23T12:37:45;7.00;99.90
51950;DHT22;37974;53.218;6.640;2024-03-23T12:40:10;6.90;99.90
51950;DHT22;37974;53.218;6.640;2024-03-23T12:42:36;6.90;99.90
51950;DHT22;37974;53.218;6.640;2024-03-23T12:45:03;6.90;99.90
51950;DHT22;37974;53.218;6.640;2024-03-23T12:47:30;6.90;99.90
51950;DHT22;37974;53.218;6.640;2024-03-23T12:49:56;7.00;99.90
51950;DHT22;37974;53.218;6.640;2024-03-23T12:52:21;7.00;99.90
51950;DHT22;37974;53.218;6.640;2024-03-23T12:54:49;7.00;99.90
51950;DHT22;37974;53.218;6.640;2024-03-23T12:57:15;7.10;99.90
51950;DHT22;37974;53.218;6.640;2024-03-23T12:59:41;7.10;99.90
51950;DHT22;37974;53.218;6.640;2024-03-23T13:02:06;7.00;99.90
51950;DHT22;37974;53.218;6.640;2024-03-23T13:04:32;7.00;99.90
51950;DHT22;37974;53.218;6.640;2024-03-23T13:06:58;7.00;99.90
51950;DHT22;37974;53.218;6.640;2024-03-23T13:09:24;7.10;99.90
51950;DHT22;37974;53.218;6.640;2024-03-23T13:11:50;7.40;99.90
51950;DHT22;37974;53.218;6.640;2024-03-23T13:14:15;7.60;99.90
51950;DHT22;37974;53.218;6.640;2024-03-23T13:16:42;7.80;99.90
51950;DHT22;37974;53.218;6.640;2024-03-23T13:19:08;8.00;99.90
51950;DHT22;37974;53.218;6.640;2024-03-23T13:21:33;8.10;99.90
51950;DHT22;37974;53.218;6.640;2024-03-23T13:23:59;8.20;99.90
51950;DHT22;37974;53.218;6.640;2024-03-23T13:26:25;8.20;99.90
51950;DHT22;37974;53.218;6.640;2024-03-23T13:28:50;8.10;99.90
51950;DHT22;37974;53.218;6.640;2024-03-23T13:31:16;8.10;99.90
51950;DHT22;37974;53.218;6.640;2024-03-23T13:33:42;8.00;99.90
51950;DHT22;37974;53.218;6.640;2024-03-23T13:36:09;8.10;99.90
51950;DHT22;37974;53.218;6.640;2024-03-23T13:38:35;8.30;99.90
51950;DHT22;37974;53.218;6.640;2024-03-23T13:41:01;8.30;99.90
51950;DHT22;37974;53.218;6.640;2024-03-23T13:43:27;8.30;99.90
51950;DHT22;37974;53.218;6.640;2024-03-23T13:45:55;8.20;99.90
51950;DHT22;37974;53.218;6.640;2024-03-23T13:48:22;8.30;99.90
51950;DHT22;37974;53.218;6.640;2024-03-23T13:50:57;8.40;99.90
51950;DHT22;37974;53.218;6.640;2024-03-23T13:53:23;8.50;99.90
51950;DHT22;37974;53.218;6.640;2024-03-23T13:55:49;8.60;99.90
51950;DHT22;37974;53.218;6.640;2024-03-23T13:58:15;8.60;99.90
51950;DHT22;37974;53.218;6.640;2024-03-23T14:00:42;8.50;99.90
51950;DHT22;37974;53.218;6.640;2024-03-23T14:03:13;8.50;99.90
51950;DHT22;37974;53.218;6.640;2024-03-23T14:05:40;8.40;99.90
51950;DHT22;37974;53.218;6.640;2024-03-23T14:08:07;8.40;99.90
51950;DHT22;37974;53.218;6.640;2024-03-23T14:10:33;8.20;99.90
51950;DHT22;37974;53.218;6.640;2024-03-23T14:12:59;8.00;99.90
51950;DHT22;37974;53.218;6.640;2024-03-23T14:15:26;7.90;99.90
51950;DHT22;37974;53.218;6.640;2024-03-23T14:17:52;8.00;99.90
51950;DHT22;37974;53.218;6.640;2024-03-23T14:20:20;8.10;99.90
51950;DHT22;37974;53.218;6.640;2024-03-23T14:22:47;8.10;99.90
51950;DHT22;37974;53.218;6.640;2024-03-23T14:25:13;8.20;99.90
51950;DHT22;37974;53.218;6.640;2024-03-23T14:27:38;8.20;99.90
51950;DHT22;37974;53.218;6.640;2024-03-23T14:30:04;8.20;99.90
51950;DHT22;37974;53.218;6.640;2024-03-23T14:32:31;8.10;99.90
51950;DHT22;37974;53.218;6.640;2024-03-23T14:35:00;8.10;99.90
51950;DHT22;37974;53.218;6.640;2024-03-23T14:37:26;8.10;99.90
51950;DHT22;37974;53.218;6.640;2024-03-23T14:39:52;8.10;99.90
51950;DHT22;37974;53.218;6.640;2024-03-23T14:42:18;8.10;99.90
51950;DHT22;37974;53.218;6.640;2024-03-23T14:44:44;8.10;99.90
51950;DHT22;37974;53.218;6.640;2024-03-23T14:47:10;8.20;99.90
51950;DHT22;37974;53.218;6.640;2024-03-23T14:49:36;8.20;99.90
51950;DHT22;37974;53.218;6.640;2024-03-23T14:52:02;8.30;99.90
51950;DHT22;37974;53.218;6.640;2024-03-23T14:54:31;8.30;99.90
51950;DHT22;37974;53.218;6.640;2024-03-23T14:56:56;8.30;99.90
51950;DHT22;37974;53.218;6.640;2024-03-23T14:59:24;8.40;99.90
51950;DHT22;37974;53.218;6.640;2024-03-23T15:01:49;8.60;99.90
51950;DHT22;37974;53.218;6.640;2024-03-23T15:04:16;8.50;99.90
51950;DHT22;37974;53.218;6.640;2024-03-23T15:06:42;8.40;99.90
51950;DHT22;37974;53.218;6.640;2024-03-23T15:09:08;8.20;99.90
51950;DHT22;37974;53.218;6.640;2024-03-23T15:11:37;8.10;99.90
51950;DHT22;37974;53.218;6.640;2024-03-23T15:14:02;8.10;99.90
51950;DHT22;37974;53.218;6.640;2024-03-23T15:16:28;8.10;99.90
51950;DHT22;37974;53.218;6.640;2024-03-23T15:18:54;8.20;99.90
51950;DHT22;37974;53.218;6.640;2024-03-23T15:21:20;8.20;99.90
51950;DHT22;37974;53.218;6.640;2024-03-23T15:23:47;8.20;99.90
51950;DHT22;37974;53.218;6.640;2024-03-23T15:26:13;8.10;99.90
51950;DHT22;37974;53.218;6.640;2024-03-23T15:28:39;8.10;99.90
51950;DHT22;37974;53.218;6.640;2024-03-23T15:31:30;8.20;99.90
51950;DHT22;37974;53.218;6.640;2024-03-23T15:33:56;8.20;99.90
51950;DHT22;37974;53.218;6.640;2024-03-23T15:36:22;8.20;99.90
51950;DHT22;37974;53.218;6.640;2024-03-23T15:38:47;8.30;99.90
51950;DHT22;37974;53.218;6.640;2024-03-23T15:41:14;8.30;99.90
51950;DHT22;37974;53.218;6.640;2024-03-23T15:43:40;8.30;99.90
51950;DHT22;37974;53.218;6.640;2024-03-23T15:46:07;8.20;99.90
51950;DHT22;37974;53.218;6.640;2024-03-23T15:48:33;8.10;99.90
51950;DHT22;37974;53.218;6.640;2024-03-23T15:51:02;7.90;99.90
51950;DHT22;37974;53.218;6.640;2024-03-23T15:53:28;7.70;99.90
51950;DHT22;37974;53.218;6.640;2024-03-23T15:55:56;7.60;99.90
51950;DHT22;37974;53.218;6.640;2024-03-23T15:58:22;7.50;99.90
51950;DHT22;37974;53.218;6.640;2024-03-23T16:00:57;7.50;99.90
51950;DHT22;37974;53.218;6.640;2024-03-23T16:03:23;7.40;99.90
51950;DHT22;37974;53.218;6.640;2024-03-23T16:05:53;7.40;99.90
51950;DHT22;37974;53.218;6.640;2024-03-23T16:08:20;7.40;99.90
51950;DHT22;37974;53.218;6.640;2024-03-23T16:10:46;7.40;99.90
51950;DHT22;37974;53.218;6.640;2024-03-23T16:13:12;7.30;99.90
51950;DHT22;37974;53.218;6.640;2024-03-23T16:15:37;7.30;99.90
51950;DHT22;37974;53.218;6.640;2024-03-23T16:18:03;7.30;99.90
51950;DHT22;37974;53.218;6.640;2024-03-23T16:20:29;7.30;99.90
51950;DHT22;37974;53.218;6.640;2024-03-23T16:22:56;7.30;99.90
51950;DHT22;37974;53.218;6.640;2024-03-23T16:25:21;7.30;99.90
51950;DHT22;37974;53.218;6.640;2024-03-23T16:27:47;7.30;99.90
51950;DHT22;37974;53.218;6.640;2024-03-23T16:30:13;7.30;99.90
51950;DHT22;37974;53.218;6.640;2024-03-23T16:32:39;7.30;99.90
51950;DHT22;37974;53.218;6.640;2024-03-23T16:35:05;7.30;99.90
51950;DHT22;37974;53.218;6.640;2024-03-23T16:37:31;7.30;99.90
51950;DHT22;37974;53.218;6.640;2024-03-23T16:39:57;7.30;99.90
51950;DHT22;37974;53.218;6.640;2024-03-23T16:42:22;7.40;99.90
51950;DHT22;37974;53.218;6.640;2024-03-23T16:44:48;7.40;99.90